Aérodrome :
LOGIN :

S'inscrire | Disclaimer

   EN    FR    IT 

 










Légende :    VFR   VFR Marginal   IFR   IFR Intensif   IFR Très Intensif
Visi : 
Plafond : 
>= 8 km
>= 3000ft
5 à 8 km
1000 à 3000 ft
1500m à 5 km
500 à 1000 ft
800 à 1500m
200 à 500 ft
< 800m
< 200 ft
Symboles :   Orages  Brouillard  Fortes neiges  Fortes précipitations  Vent > 20 kt
SIGMETs :   Divers  Orages  Givrage  Turbulence  Onde Orograph.  Cendres Volcan.






- Altitude de l'aérodrome : 49 ft
- Code IATA : SEN


EGMC - Southend

DERNIER METAR :
  • 300950Z 29011KT 250V320 CAVOK 07/00 Q1023

METARs EXPIRÉS :
  • 300920Z 29011KT 260V320 CAVOK 07/00 Q1023
  • 300850Z 29010KT 260V320 CAVOK 07/M00 Q1023
  • 300820Z 29009KT 260V320 CAVOK 06/M00 Q1023
  • 300750Z 30010G20KT 250V330 CAVOK 06/00 Q1022
  • 300720Z 30010KT CAVOK 06/00 Q1022

TAF TAF EGMC
Valide du 30 à 09h jusqu'au 30 à 18h UTC


300755Z 3009/3018 29012KT 9999 SCT030



MET'MAP, la Météo Aéronautique d'un coup d'oeil ! - Copyright ORBIFLY Décembre 2007 - Disclaimer

ORBIFLY MET'MAP TEAM :

Programmation & Développement : Alexandra Zaïnal
Sur une idée originale de : Baudouin d'Aumeries
Soutien technique & logistique : Manuel Goepfert
Assistance : Marc-Olivier Méhu




SOURCES & CREDITS :

   NOAA